sensor_id;sensor_type;location;lat;lon;timestamp;P1;durP1;ratioP1;P2;durP2;ratioP2
9884;SDS011;4981;50.966;4.842;2022-12-07T00:00:53;11.53;;;9.03;;
9884;SDS011;4981;50.966;4.842;2022-12-07T00:03:21;12.53;;;9.57;;
9884;SDS011;4981;50.966;4.842;2022-12-07T00:05:48;13.00;;;9.97;;
9884;SDS011;4981;50.966;4.842;2022-12-07T00:08:15;17.00;;;12.10;;
9884;SDS011;4981;50.966;4.842;2022-12-07T00:10:42;20.70;;;12.87;;
9884;SDS011;4981;50.966;4.842;2022-12-07T00:13:11;21.73;;;13.23;;
9884;SDS011;4981;50.966;4.842;2022-12-07T00:15:38;15.10;;;11.87;;
9884;SDS011;4981;50.966;4.842;2022-12-07T00:18:05;16.93;;;10.73;;
9884;SDS011;4981;50.966;4.842;2022-12-07T00:20:32;18.97;;;10.20;;
9884;SDS011;4981;50.966;4.842;2022-12-07T00:22:59;18.57;;;11.30;;
9884;SDS011;4981;50.966;4.842;2022-12-07T00:25:26;17.03;;;12.40;;
9884;SDS011;4981;50.966;4.842;2022-12-07T00:27:53;17.37;;;12.33;;
9884;SDS011;4981;50.966;4.842;2022-12-07T00:30:23;12.60;;;9.37;;
9884;SDS011;4981;50.966;4.842;2022-12-07T00:32:50;15.07;;;11.17;;
9884;SDS011;4981;50.966;4.842;2022-12-07T00:35:17;15.37;;;11.00;;
9884;SDS011;4981;50.966;4.842;2022-12-07T00:37:44;14.47;;;10.47;;
9884;SDS011;4981;50.966;4.842;2022-12-07T00:40:11;14.57;;;9.63;;
9884;SDS011;4981;50.966;4.842;2022-12-07T00:42:39;14.40;;;9.33;;
9884;SDS011;4981;50.966;4.842;2022-12-07T00:45:06;19.40;;;10.67;;
9884;SDS011;4981;50.966;4.842;2022-12-07T00:47:36;18.43;;;11.03;;
9884;SDS011;4981;50.966;4.842;2022-12-07T00:50:03;17.47;;;11.73;;
9884;SDS011;4981;50.966;4.842;2022-12-07T00:52:31;19.17;;;10.53;;
9884;SDS011;4981;50.966;4.842;2022-12-07T00:54:59;13.27;;;9.90;;
9884;SDS011;4981;50.966;4.842;2022-12-07T00:57:26;20.20;;;11.83;;
9884;SDS011;4981;50.966;4.842;2022-12-07T00:59:53;15.60;;;11.37;;
9884;SDS011;4981;50.966;4.842;2022-12-07T01:02:22;21.40;;;12.17;;
9884;SDS011;4981;50.966;4.842;2022-12-07T01:04:51;15.90;;;11.30;;
9884;SDS011;4981;50.966;4.842;2022-12-07T01:07:18;20.23;;;11.80;;
9884;SDS011;4981;50.966;4.842;2022-12-07T01:09:45;16.50;;;11.47;;
9884;SDS011;4981;50.966;4.842;2022-12-07T01:12:12;18.20;;;11.47;;
9884;SDS011;4981;50.966;4.842;2022-12-07T01:14:41;20.97;;;11.83;;
9884;SDS011;4981;50.966;4.842;2022-12-07T01:17:08;18.30;;;11.70;;
9884;SDS011;4981;50.966;4.842;2022-12-07T01:19:35;15.03;;;11.07;;
9884;SDS011;4981;50.966;4.842;2022-12-07T01:22:04;16.47;;;11.73;;
9884;SDS011;4981;50.966;4.842;2022-12-07T01:24:31;17.43;;;11.60;;
9884;SDS011;4981;50.966;4.842;2022-12-07T01:26:58;14.87;;;11.43;;
9884;SDS011;4981;50.966;4.842;2022-12-07T01:29:25;19.37;;;12.17;;
9884;SDS011;4981;50.966;4.842;2022-12-07T01:31:53;17.33;;;13.17;;
9884;SDS011;4981;50.966;4.842;2022-12-07T01:34:20;18.03;;;12.37;;
9884;SDS011;4981;50.966;4.842;2022-12-07T01:36:47;14.50;;;12.30;;
9884;SDS011;4981;50.966;4.842;2022-12-07T01:39:15;14.40;;;11.07;;
9884;SDS011;4981;50.966;4.842;2022-12-07T01:41:42;14.87;;;11.13;;
9884;SDS011;4981;50.966;4.842;2022-12-07T01:44:20;16.23;;;11.67;;
9884;SDS011;4981;50.966;4.842;2022-12-07T01:46:48;15.33;;;11.80;;
9884;SDS011;4981;50.966;4.842;2022-12-07T01:49:20;18.23;;;12.50;;
9884;SDS011;4981;50.966;4.842;2022-12-07T01:51:52;17.77;;;13.40;;
9884;SDS011;4981;50.966;4.842;2022-12-07T01:54:25;15.73;;;12.00;;
9884;SDS011;4981;50.966;4.842;2022-12-07T01:56:53;15.40;;;12.97;;
9884;SDS011;4981;50.966;4.842;2022-12-07T01:59:23;15.17;;;11.80;;
9884;SDS011;4981;50.966;4.842;2022-12-07T02:01:52;17.53;;;13.13;;
9884;SDS011;4981;50.966;4.842;2022-12-07T02:04:21;16.43;;;13.20;;
9884;SDS011;4981;50.966;4.842;2022-12-07T02:06:48;15.33;;;12.13;;
9884;SDS011;4981;50.966;4.842;2022-12-07T02:09:17;17.73;;;12.40;;
9884;SDS011;4981;50.966;4.842;2022-12-07T02:11:46;16.53;;;11.90;;
9884;SDS011;4981;50.966;4.842;2022-12-07T02:14:13;16.17;;;11.20;;
9884;SDS011;4981;50.966;4.842;2022-12-07T02:16:43;18.37;;;12.07;;
9884;SDS011;4981;50.966;4.842;2022-12-07T02:19:35;19.13;;;12.10;;
9884;SDS011;4981;50.966;4.842;2022-12-07T02:22:23;17.90;;;11.30;;
9884;SDS011;4981;50.966;4.842;2022-12-07T02:25:11;17.33;;;11.57;;
9884;SDS011;4981;50.966;4.842;2022-12-07T02:27:47;17.23;;;12.30;;
9884;SDS011;4981;50.966;4.842;2022-12-07T02:30:21;20.07;;;13.60;;
9884;SDS011;4981;50.966;4.842;2022-12-07T02:32:51;15.33;;;11.87;;
9884;SDS011;4981;50.966;4.842;2022-12-07T02:35:26;16.60;;;12.97;;
9884;SDS011;4981;50.966;4.842;2022-12-07T02:37:59;15.27;;;11.43;;
9884;SDS011;4981;50.966;4.842;2022-12-07T02:40:32;21.03;;;12.43;;
9884;SDS011;4981;50.966;4.842;2022-12-07T02:43:05;18.93;;;12.07;;
9884;SDS011;4981;50.966;4.842;2022-12-07T02:45:38;14.53;;;11.47;;
9884;SDS011;4981;50.966;4.842;2022-12-07T02:48:08;16.10;;;12.00;;
9884;SDS011;4981;50.966;4.842;2022-12-07T02:50:38;15.90;;;11.93;;
9884;SDS011;4981;50.966;4.842;2022-12-07T02:53:05;15.23;;;11.17;;
9884;SDS011;4981;50.966;4.842;2022-12-07T02:55:34;21.03;;;13.43;;
9884;SDS011;4981;50.966;4.842;2022-12-07T02:58:07;15.83;;;11.60;;
9884;SDS011;4981;50.966;4.842;2022-12-07T03:00:54;17.43;;;11.53;;
9884;SDS011;4981;50.966;4.842;2022-12-07T03:03:29;16.90;;;11.90;;
9884;SDS011;4981;50.966;4.842;2022-12-07T03:06:04;17.07;;;11.30;;
9884;SDS011;4981;50.966;4.842;2022-12-07T03:08:41;16.53;;;11.27;;
9884;SDS011;4981;50.966;4.842;2022-12-07T03:11:13;15.60;;;11.60;;
9884;SDS011;4981;50.966;4.842;2022-12-07T03:13:45;14.60;;;11.47;;
9884;SDS011;4981;50.966;4.842;2022-12-07T03:16:19;15.60;;;10.90;;
9884;SDS011;4981;50.966;4.842;2022-12-07T03:18:51;17.40;;;11.47;;
9884;SDS011;4981;50.966;4.842;2022-12-07T03:21:23;17.40;;;10.87;;
9884;SDS011;4981;50.966;4.842;2022-12-07T03:23:55;20.40;;;11.20;;
9884;SDS011;4981;50.966;4.842;2022-12-07T03:26:26;16.17;;;12.10;;
9884;SDS011;4981;50.966;4.842;2022-12-07T03:29:05;17.70;;;11.73;;
9884;SDS011;4981;50.966;4.842;2022-12-07T03:31:37;20.97;;;12.43;;
9884;SDS011;4981;50.966;4.842;2022-12-07T03:34:08;15.80;;;12.00;;
9884;SDS011;4981;50.966;4.842;2022-12-07T03:36:40;20.57;;;12.43;;
9884;SDS011;4981;50.966;4.842;2022-12-07T03:39:12;17.13;;;13.10;;
9884;SDS011;4981;50.966;4.842;2022-12-07T03:41:46;15.27;;;12.20;;
9884;SDS011;4981;50.966;4.842;2022-12-07T03:44:13;18.10;;;11.90;;
9884;SDS011;4981;50.966;4.842;2022-12-07T03:46:44;17.10;;;11.90;;
9884;SDS011;4981;50.966;4.842;2022-12-07T03:49:20;24.53;;;12.07;;
9884;SDS011;4981;50.966;4.842;2022-12-07T03:51:54;19.90;;;12.70;;
9884;SDS011;4981;50.966;4.842;2022-12-07T03:54:26;16.90;;;12.10;;
9884;SDS011;4981;50.966;4.842;2022-12-07T03:56:58;16.17;;;11.63;;
9884;SDS011;4981;50.966;4.842;2022-12-07T03:59:26;23.87;;;12.90;;
9884;SDS011;4981;50.966;4.842;2022-12-07T04:01:56;18.40;;;10.17;;
9884;SDS011;4981;50.966;4.842;2022-12-07T04:04:27;19.70;;;11.93;;
9884;SDS011;4981;50.966;4.842;2022-12-07T04:06:54;18.63;;;12.23;;
9884;SDS011;4981;50.966;4.842;2022-12-07T04:09:22;17.10;;;11.53;;
9884;SDS011;4981;50.966;4.842;2022-12-07T04:11:49;20.50;;;11.53;;
9884;SDS011;4981;50.966;4.842;2022-12-07T04:14:16;20.50;;;11.93;;
9884;SDS011;4981;50.966;4.842;2022-12-07T04:16:46;18.77;;;11.10;;
9884;SDS011;4981;50.966;4.842;2022-12-07T04:19:15;13.97;;;10.37;;
9884;SDS011;4981;50.966;4.842;2022-12-07T04:21:44;20.00;;;10.90;;
9884;SDS011;4981;50.966;4.842;2022-12-07T04:24:11;19.23;;;10.73;;
9884;SDS011;4981;50.966;4.842;2022-12-07T04:26:39;20.93;;;11.30;;
9884;SDS011;4981;50.966;4.842;2022-12-07T04:29:07;21.30;;;11.60;;
9884;SDS011;4981;50.966;4.842;2022-12-07T04:31:34;19.40;;;11.13;;
9884;SDS011;4981;50.966;4.842;2022-12-07T04:34:01;16.60;;;10.97;;
9884;SDS011;4981;50.966;4.842;2022-12-07T04:36:30;18.57;;;10.70;;
9884;SDS011;4981;50.966;4.842;2022-12-07T04:38:58;17.07;;;10.87;;
9884;SDS011;4981;50.966;4.842;2022-12-07T04:41:25;22.40;;;10.93;;
9884;SDS011;4981;50.966;4.842;2022-12-07T04:43:54;16.37;;;10.97;;
9884;SDS011;4981;50.966;4.842;2022-12-07T04:46:22;15.30;;;11.47;;
9884;SDS011;4981;50.966;4.842;2022-12-07T04:48:49;16.37;;;10.93;;
9884;SDS011;4981;50.966;4.842;2022-12-07T04:51:18;15.57;;;10.53;;
9884;SDS011;4981;50.966;4.842;2022-12-07T04:53:48;18.93;;;10.57;;
9884;SDS011;4981;50.966;4.842;2022-12-07T04:56:16;19.67;;;10.73;;
9884;SDS011;4981;50.966;4.842;2022-12-07T04:58:44;18.80;;;10.53;;
9884;SDS011;4981;50.966;4.842;2022-12-07T05:01:12;20.37;;;10.40;;
9884;SDS011;4981;50.966;4.842;2022-12-07T05:03:40;16.40;;;10.03;;
9884;SDS011;4981;50.966;4.842;2022-12-07T05:06:07;18.87;;;10.97;;
9884;SDS011;4981;50.966;4.842;2022-12-07T05:08:34;18.17;;;10.50;;
9884;SDS011;4981;50.966;4.842;2022-12-07T05:11:03;17.37;;;10.43;;
9884;SDS011;4981;50.966;4.842;2022-12-07T05:13:31;16.70;;;10.73;;
9884;SDS011;4981;50.966;4.842;2022-12-07T05:15:59;22.07;;;11.87;;
9884;SDS011;4981;50.966;4.842;2022-12-07T05:18:26;21.17;;;10.73;;
9884;SDS011;4981;50.966;4.842;2022-12-07T05:20:53;17.00;;;10.63;;
9884;SDS011;4981;50.966;4.842;2022-12-07T05:23:21;24.20;;;11.67;;
9884;SDS011;4981;50.966;4.842;2022-12-07T05:25:48;23.83;;;11.43;;
9884;SDS011;4981;50.966;4.842;2022-12-07T05:28:17;21.73;;;10.87;;
9884;SDS011;4981;50.966;4.842;2022-12-07T05:30:44;18.97;;;10.07;;
9884;SDS011;4981;50.966;4.842;2022-12-07T05:33:11;17.90;;;9.63;;
9884;SDS011;4981;50.966;4.842;2022-12-07T05:35:38;18.83;;;10.80;;
9884;SDS011;4981;50.966;4.842;2022-12-07T05:38:06;18.93;;;10.67;;
9884;SDS011;4981;50.966;4.842;2022-12-07T05:40:33;20.37;;;11.33;;
9884;SDS011;4981;50.966;4.842;2022-12-07T05:43:00;19.93;;;11.47;;
9884;SDS011;4981;50.966;4.842;2022-12-07T05:45:28;26.40;;;11.73;;
9884;SDS011;4981;50.966;4.842;2022-12-07T05:47:56;23.30;;;11.77;;
9884;SDS011;4981;50.966;4.842;2022-12-07T05:50:23;23.37;;;12.10;;
9884;SDS011;4981;50.966;4.842;2022-12-07T05:52:50;19.47;;;12.30;;
9884;SDS011;4981;50.966;4.842;2022-12-07T05:55:17;22.33;;;11.50;;
9884;SDS011;4981;50.966;4.842;2022-12-07T05:57:43;22.50;;;11.33;;
9884;SDS011;4981;50.966;4.842;2022-12-07T06:00:32;23.87;;;12.30;;
9884;SDS011;4981;50.966;4.842;2022-12-07T06:02:58;21.43;;;12.40;;
9884;SDS011;4981;50.966;4.842;2022-12-07T06:05:25;21.40;;;11.67;;
9884;SDS011;4981;50.966;4.842;2022-12-07T06:07:53;23.90;;;11.73;;
9884;SDS011;4981;50.966;4.842;2022-12-07T06:10:20;17.07;;;12.03;;
9884;SDS011;4981;50.966;4.842;2022-12-07T06:12:47;23.93;;;12.53;;
9884;SDS011;4981;50.966;4.842;2022-12-07T06:15:13;20.30;;;12.13;;
9884;SDS011;4981;50.966;4.842;2022-12-07T06:17:42;19.70;;;11.97;;
9884;SDS011;4981;50.966;4.842;2022-12-07T06:20:09;21.23;;;11.60;;
9884;SDS011;4981;50.966;4.842;2022-12-07T06:22:37;22.87;;;13.47;;
9884;SDS011;4981;50.966;4.842;2022-12-07T06:25:04;23.00;;;11.90;;
9884;SDS011;4981;50.966;4.842;2022-12-07T06:27:32;27.30;;;15.27;;
9884;SDS011;4981;50.966;4.842;2022-12-07T06:30:00;19.27;;;13.30;;
9884;SDS011;4981;50.966;4.842;2022-12-07T06:32:31;19.10;;;11.63;;
9884;SDS011;4981;50.966;4.842;2022-12-07T06:35:00;17.27;;;10.67;;
9884;SDS011;4981;50.966;4.842;2022-12-07T06:37:27;17.13;;;11.17;;
9884;SDS011;4981;50.966;4.842;2022-12-07T06:39:55;23.97;;;11.20;;
9884;SDS011;4981;50.966;4.842;2022-12-07T06:42:22;18.00;;;10.57;;
9884;SDS011;4981;50.966;4.842;2022-12-07T06:44:49;20.33;;;12.03;;
9884;SDS011;4981;50.966;4.842;2022-12-07T06:47:16;19.23;;;10.77;;
9884;SDS011;4981;50.966;4.842;2022-12-07T06:49:43;17.50;;;10.73;;
9884;SDS011;4981;50.966;4.842;2022-12-07T06:52:12;22.07;;;11.20;;
9884;SDS011;4981;50.966;4.842;2022-12-07T06:54:39;18.73;;;9.50;;
9884;SDS011;4981;50.966;4.842;2022-12-07T06:57:06;18.30;;;10.23;;
9884;SDS011;4981;50.966;4.842;2022-12-07T06:59:34;19.83;;;10.13;;
9884;SDS011;4981;50.966;4.842;2022-12-07T07:02:00;15.90;;;10.97;;
9884;SDS011;4981;50.966;4.842;2022-12-07T07:04:28;7.93;;;4.90;;
9884;SDS011;4981;50.966;4.842;2022-12-07T07:06:55;17.43;;;8.90;;
9884;SDS011;4981;50.966;4.842;2022-12-07T07:09:23;15.27;;;9.27;;
9884;SDS011;4981;50.966;4.842;2022-12-07T07:11:51;21.63;;;9.83;;
9884;SDS011;4981;50.966;4.842;2022-12-07T07:14:18;17.90;;;9.20;;
9884;SDS011;4981;50.966;4.842;2022-12-07T07:16:46;18.83;;;9.47;;
9884;SDS011;4981;50.966;4.842;2022-12-07T07:19:13;13.17;;;8.73;;
9884;SDS011;4981;50.966;4.842;2022-12-07T07:21:40;11.60;;;6.93;;
9884;SDS011;4981;50.966;4.842;2022-12-07T07:24:08;13.47;;;8.60;;
9884;SDS011;4981;50.966;4.842;2022-12-07T07:26:36;16.50;;;8.13;;
9884;SDS011;4981;50.966;4.842;2022-12-07T07:29:03;15.00;;;7.70;;
9884;SDS011;4981;50.966;4.842;2022-12-07T07:31:30;13.30;;;7.93;;
9884;SDS011;4981;50.966;4.842;2022-12-07T07:34:00;14.17;;;7.50;;
9884;SDS011;4981;50.966;4.842;2022-12-07T07:36:27;13.23;;;8.00;;
9884;SDS011;4981;50.966;4.842;2022-12-07T07:38:54;13.00;;;7.07;;
9884;SDS011;4981;50.966;4.842;2022-12-07T07:41:22;16.40;;;7.23;;
9884;SDS011;4981;50.966;4.842;2022-12-07T07:43:50;15.60;;;7.20;;
9884;SDS011;4981;50.966;4.842;2022-12-07T07:46:17;16.20;;;7.37;;
9884;SDS011;4981;50.966;4.842;2022-12-07T07:48:44;14.37;;;7.27;;
9884;SDS011;4981;50.966;4.842;2022-12-07T07:51:12;11.03;;;6.87;;
9884;SDS011;4981;50.966;4.842;2022-12-07T07:53:39;18.33;;;7.10;;
9884;SDS011;4981;50.966;4.842;2022-12-07T07:56:06;11.43;;;7.30;;
9884;SDS011;4981;50.966;4.842;2022-12-07T07:58:33;16.60;;;7.40;;
9884;SDS011;4981;50.966;4.842;2022-12-07T08:01:06;16.50;;;7.97;;
9884;SDS011;4981;50.966;4.842;2022-12-07T08:03:33;12.63;;;7.13;;
9884;SDS011;4981;50.966;4.842;2022-12-07T08:06:01;18.73;;;7.57;;
9884;SDS011;4981;50.966;4.842;2022-12-07T08:08:29;13.73;;;6.73;;
9884;SDS011;4981;50.966;4.842;2022-12-07T08:10:56;13.07;;;6.67;;
9884;SDS011;4981;50.966;4.842;2022-12-07T08:13:25;18.73;;;7.67;;
9884;SDS011;4981;50.966;4.842;2022-12-07T08:15:53;11.87;;;6.97;;
9884;SDS011;4981;50.966;4.842;2022-12-07T08:18:21;12.97;;;7.30;;
9884;SDS011;4981;50.966;4.842;2022-12-07T08:20:48;14.07;;;7.77;;
9884;SDS011;4981;50.966;4.842;2022-12-07T08:23:15;14.47;;;7.67;;
9884;SDS011;4981;50.966;4.842;2022-12-07T08:25:42;13.20;;;7.60;;
9884;SDS011;4981;50.966;4.842;2022-12-07T08:28:09;11.50;;;6.93;;
9884;SDS011;4981;50.966;4.842;2022-12-07T08:30:36;18.67;;;7.70;;
9884;SDS011;4981;50.966;4.842;2022-12-07T08:33:03;24.30;;;8.43;;
9884;SDS011;4981;50.966;4.842;2022-12-07T08:35:33;18.37;;;8.27;;
9884;SDS011;4981;50.966;4.842;2022-12-07T08:38:01;17.03;;;8.60;;
9884;SDS011;4981;50.966;4.842;2022-12-07T08:40:29;13.63;;;8.47;;
9884;SDS011;4981;50.966;4.842;2022-12-07T08:42:56;17.40;;;8.27;;
9884;SDS011;4981;50.966;4.842;2022-12-07T08:45:24;15.33;;;8.17;;
9884;SDS011;4981;50.966;4.842;2022-12-07T08:47:52;19.73;;;8.17;;
9884;SDS011;4981;50.966;4.842;2022-12-07T08:50:23;20.13;;;8.40;;
9884;SDS011;4981;50.966;4.842;2022-12-07T08:52:52;17.70;;;8.30;;
9884;SDS011;4981;50.966;4.842;2022-12-07T08:55:21;12.60;;;7.73;;
9884;SDS011;4981;50.966;4.842;2022-12-07T08:57:49;14.73;;;7.77;;
9884;SDS011;4981;50.966;4.842;2022-12-07T09:00:17;17.87;;;7.60;;
9884;SDS011;4981;50.966;4.842;2022-12-07T09:02:44;18.07;;;8.30;;
9884;SDS011;4981;50.966;4.842;2022-12-07T09:05:13;14.57;;;7.37;;
9884;SDS011;4981;50.966;4.842;2022-12-07T09:07:41;18.90;;;8.03;;
9884;SDS011;4981;50.966;4.842;2022-12-07T09:10:11;15.37;;;7.70;;
9884;SDS011;4981;50.966;4.842;2022-12-07T09:12:38;14.67;;;7.67;;
9884;SDS011;4981;50.966;4.842;2022-12-07T09:15:05;17.97;;;9.10;;
9884;SDS011;4981;50.966;4.842;2022-12-07T09:17:34;14.00;;;8.60;;
9884;SDS011;4981;50.966;4.842;2022-12-07T09:20:02;13.17;;;7.50;;
9884;SDS011;4981;50.966;4.842;2022-12-07T09:22:29;13.27;;;8.80;;
9884;SDS011;4981;50.966;4.842;2022-12-07T09:24:56;16.20;;;9.10;;
9884;SDS011;4981;50.966;4.842;2022-12-07T09:27:26;14.27;;;7.83;;
9884;SDS011;4981;50.966;4.842;2022-12-07T09:29:53;15.97;;;7.80;;
9884;SDS011;4981;50.966;4.842;2022-12-07T09:32:21;14.93;;;7.63;;
9884;SDS011;4981;50.966;4.842;2022-12-07T09:34:49;12.17;;;7.67;;
9884;SDS011;4981;50.966;4.842;2022-12-07T09:37:16;15.73;;;7.87;;
9884;SDS011;4981;50.966;4.842;2022-12-07T09:39:43;18.33;;;7.57;;
9884;SDS011;4981;50.966;4.842;2022-12-07T09:42:11;18.93;;;8.77;;
9884;SDS011;4981;50.966;4.842;2022-12-07T09:44:53;18.37;;;9.37;;
9884;SDS011;4981;50.966;4.842;2022-12-07T09:47:21;14.83;;;9.30;;
9884;SDS011;4981;50.966;4.842;2022-12-07T09:49:48;13.83;;;8.07;;
9884;SDS011;4981;50.966;4.842;2022-12-07T09:52:19;13.90;;;8.90;;
9884;SDS011;4981;50.966;4.842;2022-12-07T09:54:51;13.97;;;7.30;;
9884;SDS011;4981;50.966;4.842;2022-12-07T09:57:27;14.97;;;8.17;;
9884;SDS011;4981;50.966;4.842;2022-12-07T09:59:59;14.03;;;7.83;;
9884;SDS011;4981;50.966;4.842;2022-12-07T10:02:34;17.90;;;10.97;;
9884;SDS011;4981;50.966;4.842;2022-12-07T10:05:04;9.80;;;7.43;;
9884;SDS011;4981;50.966;4.842;2022-12-07T10:07:33;12.63;;;7.90;;
9884;SDS011;4981;50.966;4.842;2022-12-07T10:10:02;16.87;;;7.40;;
9884;SDS011;4981;50.966;4.842;2022-12-07T10:12:29;13.57;;;7.03;;
9884;SDS011;4981;50.966;4.842;2022-12-07T10:15:00;14.80;;;7.23;;
9884;SDS011;4981;50.966;4.842;2022-12-07T10:17:29;11.93;;;6.47;;
9884;SDS011;4981;50.966;4.842;2022-12-07T10:20:15;12.87;;;6.87;;
9884;SDS011;4981;50.966;4.842;2022-12-07T10:22:54;13.00;;;6.33;;
9884;SDS011;4981;50.966;4.842;2022-12-07T10:25:25;10.97;;;7.03;;
9884;SDS011;4981;50.966;4.842;2022-12-07T10:27:58;14.03;;;8.70;;
9884;SDS011;4981;50.966;4.842;2022-12-07T10:30:28;13.13;;;6.70;;
9884;SDS011;4981;50.966;4.842;2022-12-07T10:32:56;7.70;;;6.60;;
9884;SDS011;4981;50.966;4.842;2022-12-07T10:35:25;15.27;;;6.77;;
9884;SDS011;4981;50.966;4.842;2022-12-07T10:37:54;12.23;;;7.53;;
9884;SDS011;4981;50.966;4.842;2022-12-07T10:40:24;10.53;;;6.23;;
9884;SDS011;4981;50.966;4.842;2022-12-07T10:43:03;11.77;;;6.73;;
9884;SDS011;4981;50.966;4.842;2022-12-07T10:45:34;13.07;;;6.00;;
9884;SDS011;4981;50.966;4.842;2022-12-07T10:48:08;10.17;;;6.80;;
9884;SDS011;4981;50.966;4.842;2022-12-07T10:50:52;15.37;;;6.87;;
9884;SDS011;4981;50.966;4.842;2022-12-07T10:53:33;11.27;;;7.37;;
9884;SDS011;4981;50.966;4.842;2022-12-07T10:59:12;10.13;;;6.10;;
9884;SDS011;4981;50.966;4.842;2022-12-07T11:02:02;14.33;;;7.60;;
9884;SDS011;4981;50.966;4.842;2022-12-07T11:04:49;10.30;;;6.80;;
9884;SDS011;4981;50.966;4.842;2022-12-07T11:07:43;12.43;;;7.10;;
9884;SDS011;4981;50.966;4.842;2022-12-07T11:10:16;14.83;;;6.47;;
9884;SDS011;4981;50.966;4.842;2022-12-07T11:13:04;11.27;;;6.23;;
9884;SDS011;4981;50.966;4.842;2022-12-07T11:15:46;12.90;;;6.83;;
9884;SDS011;4981;50.966;4.842;2022-12-07T11:18:24;12.40;;;6.87;;
9884;SDS011;4981;50.966;4.842;2022-12-07T11:20:56;14.87;;;6.83;;
9884;SDS011;4981;50.966;4.842;2022-12-07T11:23:41;11.83;;;6.20;;
9884;SDS011;4981;50.966;4.842;2022-12-07T11:26:16;10.73;;;5.90;;
9884;SDS011;4981;50.966;4.842;2022-12-07T11:28:59;9.90;;;5.70;;
9884;SDS011;4981;50.966;4.842;2022-12-07T11:31:43;9.23;;;5.40;;
9884;SDS011;4981;50.966;4.842;2022-12-07T11:34:26;10.20;;;4.47;;
9884;SDS011;4981;50.966;4.842;2022-12-07T11:37:03;13.00;;;5.00;;
9884;SDS011;4981;50.966;4.842;2022-12-07T11:39:39;8.27;;;4.80;;
9884;SDS011;4981;50.966;4.842;2022-12-07T11:42:13;11.83;;;5.10;;
9884;SDS011;4981;50.966;4.842;2022-12-07T11:44:46;9.00;;;3.70;;
9884;SDS011;4981;50.966;4.842;2022-12-07T11:47:20;10.70;;;4.27;;
9884;SDS011;4981;50.966;4.842;2022-12-07T11:49:56;9.90;;;4.10;;
9884;SDS011;4981;50.966;4.842;2022-12-07T11:52:30;12.17;;;4.60;;
9884;SDS011;4981;50.966;4.842;2022-12-07T11:55:15;9.27;;;3.73;;
9884;SDS011;4981;50.966;4.842;2022-12-07T11:57:48;12.73;;;3.77;;
9884;SDS011;4981;50.966;4.842;2022-12-07T12:00:21;7.53;;;3.30;;
9884;SDS011;4981;50.966;4.842;2022-12-07T12:02:49;12.53;;;3.80;;
9884;SDS011;4981;50.966;4.842;2022-12-07T12:05:22;10.27;;;3.00;;
9884;SDS011;4981;50.966;4.842;2022-12-07T12:07:52;8.23;;;3.70;;
9884;SDS011;4981;50.966;4.842;2022-12-07T12:10:27;10.43;;;3.73;;
9884;SDS011;4981;50.966;4.842;2022-12-07T12:13:10;10.17;;;3.87;;
9884;SDS011;4981;50.966;4.842;2022-12-07T12:18:51;11.47;;;4.13;;
9884;SDS011;4981;50.966;4.842;2022-12-07T12:21:29;11.07;;;3.90;;
9884;SDS011;4981;50.966;4.842;2022-12-07T12:23:58;8.97;;;3.90;;
9884;SDS011;4981;50.966;4.842;2022-12-07T12:26:28;6.83;;;3.40;;
9884;SDS011;4981;50.966;4.842;2022-12-07T12:28:57;9.63;;;4.10;;
9884;SDS011;4981;50.966;4.842;2022-12-07T12:34:30;7.27;;;4.17;;
9884;SDS011;4981;50.966;4.842;2022-12-07T12:37:17;8.27;;;4.17;;
9884;SDS011;4981;50.966;4.842;2022-12-07T12:40:24;11.43;;;4.20;;
9884;SDS011;4981;50.966;4.842;2022-12-07T12:52:00;9.33;;;4.53;;
9884;SDS011;4981;50.966;4.842;2022-12-07T12:54:58;9.20;;;4.63;;
9884;SDS011;4981;50.966;4.842;2022-12-07T12:57:29;10.20;;;5.33;;
9884;SDS011;4981;50.966;4.842;2022-12-07T13:00:01;13.40;;;5.73;;
9884;SDS011;4981;50.966;4.842;2022-12-07T13:02:47;13.67;;;5.10;;
9884;SDS011;4981;50.966;4.842;2022-12-07T13:05:17;9.40;;;4.90;;
9884;SDS011;4981;50.966;4.842;2022-12-07T13:07:50;11.60;;;5.60;;
9884;SDS011;4981;50.966;4.842;2022-12-07T13:10:25;8.77;;;4.73;;
9884;SDS011;4981;50.966;4.842;2022-12-07T13:13:00;9.87;;;4.70;;
9884;SDS011;4981;50.966;4.842;2022-12-07T13:15:37;8.53;;;4.87;;
9884;SDS011;4981;50.966;4.842;2022-12-07T13:20:54;10.20;;;4.53;;
9884;SDS011;4981;50.966;4.842;2022-12-07T13:23:23;10.27;;;4.60;;
9884;SDS011;4981;50.966;4.842;2022-12-07T13:25:58;9.70;;;5.37;;
9884;SDS011;4981;50.966;4.842;2022-12-07T13:28:42;10.13;;;4.30;;
9884;SDS011;4981;50.966;4.842;2022-12-07T13:31:14;9.07;;;3.97;;
9884;SDS011;4981;50.966;4.842;2022-12-07T13:34:04;11.50;;;3.90;;
9884;SDS011;4981;50.966;4.842;2022-12-07T13:36:52;10.10;;;3.80;;
9884;SDS011;4981;50.966;4.842;2022-12-07T13:39:20;6.40;;;3.87;;
9884;SDS011;4981;50.966;4.842;2022-12-07T13:41:51;7.33;;;3.93;;
9884;SDS011;4981;50.966;4.842;2022-12-07T13:44:20;5.70;;;3.27;;
9884;SDS011;4981;50.966;4.842;2022-12-07T13:46:59;9.67;;;3.30;;
9884;SDS011;4981;50.966;4.842;2022-12-07T13:49:37;7.77;;;3.10;;
9884;SDS011;4981;50.966;4.842;2022-12-07T13:52:14;4.30;;;2.40;;
9884;SDS011;4981;50.966;4.842;2022-12-07T13:54:46;4.93;;;2.23;;
9884;SDS011;4981;50.966;4.842;2022-12-07T13:57:16;5.13;;;2.67;;
9884;SDS011;4981;50.966;4.842;2022-12-07T13:59:44;3.13;;;1.90;;
9884;SDS011;4981;50.966;4.842;2022-12-07T14:02:18;3.57;;;1.70;;
9884;SDS011;4981;50.966;4.842;2022-12-07T14:04:48;4.03;;;1.77;;
9884;SDS011;4981;50.966;4.842;2022-12-07T14:07:20;3.87;;;1.93;;
9884;SDS011;4981;50.966;4.842;2022-12-07T14:09:53;4.63;;;2.37;;
9884;SDS011;4981;50.966;4.842;2022-12-07T14:12:24;4.03;;;1.90;;
9884;SDS011;4981;50.966;4.842;2022-12-07T14:14:52;4.57;;;1.87;;
9884;SDS011;4981;50.966;4.842;2022-12-07T14:17:22;2.70;;;1.93;;
9884;SDS011;4981;50.966;4.842;2022-12-07T14:19:50;5.53;;;2.63;;
9884;SDS011;4981;50.966;4.842;2022-12-07T14:22:24;4.87;;;2.47;;
9884;SDS011;4981;50.966;4.842;2022-12-07T14:25:14;5.37;;;3.00;;
9884;SDS011;4981;50.966;4.842;2022-12-07T14:27:49;4.57;;;3.07;;
9884;SDS011;4981;50.966;4.842;2022-12-07T14:30:21;9.27;;;4.07;;
9884;SDS011;4981;50.966;4.842;2022-12-07T14:32:51;6.37;;;4.33;;
9884;SDS011;4981;50.966;4.842;2022-12-07T14:35:20;9.67;;;4.17;;
9884;SDS011;4981;50.966;4.842;2022-12-07T14:37:48;5.70;;;2.87;;
9884;SDS011;4981;50.966;4.842;2022-12-07T14:40:17;5.33;;;3.00;;
9884;SDS011;4981;50.966;4.842;2022-12-07T14:42:46;9.07;;;3.37;;
9884;SDS011;4981;50.966;4.842;2022-12-07T14:45:18;7.17;;;3.63;;
9884;SDS011;4981;50.966;4.842;2022-12-07T14:47:47;4.50;;;2.53;;
9884;SDS011;4981;50.966;4.842;2022-12-07T14:50:15;3.70;;;2.30;;
9884;SDS011;4981;50.966;4.842;2022-12-07T14:52:44;3.43;;;2.47;;
9884;SDS011;4981;50.966;4.842;2022-12-07T14:55:16;7.87;;;4.50;;
9884;SDS011;4981;50.966;4.842;2022-12-07T14:57:52;6.33;;;4.23;;
9884;SDS011;4981;50.966;4.842;2022-12-07T15:00:20;7.27;;;4.20;;
9884;SDS011;4981;50.966;4.842;2022-12-07T15:02:48;5.60;;;3.70;;
9884;SDS011;4981;50.966;4.842;2022-12-07T15:05:16;5.90;;;4.23;;
9884;SDS011;4981;50.966;4.842;2022-12-07T15:07:45;5.20;;;4.33;;
9884;SDS011;4981;50.966;4.842;2022-12-07T15:10:14;8.23;;;3.97;;
9884;SDS011;4981;50.966;4.842;2022-12-07T15:12:43;7.77;;;4.27;;
9884;SDS011;4981;50.966;4.842;2022-12-07T15:15:11;5.07;;;3.80;;
9884;SDS011;4981;50.966;4.842;2022-12-07T15:17:39;6.83;;;4.37;;
9884;SDS011;4981;50.966;4.842;2022-12-07T15:20:07;5.50;;;3.47;;
9884;SDS011;4981;50.966;4.842;2022-12-07T15:22:37;7.47;;;3.50;;
9884;SDS011;4981;50.966;4.842;2022-12-07T15:25:04;4.77;;;3.57;;
9884;SDS011;4981;50.966;4.842;2022-12-07T15:27:32;6.90;;;3.50;;
9884;SDS011;4981;50.966;4.842;2022-12-07T15:30:00;6.87;;;3.20;;
9884;SDS011;4981;50.966;4.842;2022-12-07T15:32:29;7.57;;;3.80;;
9884;SDS011;4981;50.966;4.842;2022-12-07T15:34:56;5.40;;;3.17;;
9884;SDS011;4981;50.966;4.842;2022-12-07T15:37:23;8.27;;;3.87;;
9884;SDS011;4981;50.966;4.842;2022-12-07T15:39:50;8.07;;;3.80;;